createdAt,value
2023-02-15T00:02:02.230Z,79.10
2023-02-15T00:04:47.700Z,79.10
2023-02-15T00:07:17.127Z,79.20
2023-02-15T00:09:45.841Z,79.30
2023-02-15T00:12:12.944Z,79.50
2023-02-15T00:14:40.126Z,79.60
2023-02-15T00:17:07.259Z,79.60
2023-02-15T00:19:34.447Z,79.60
2023-02-15T00:22:01.530Z,79.70
2023-02-15T00:24:28.459Z,79.70
2023-02-15T00:26:55.485Z,79.70
2023-02-15T00:29:22.560Z,79.60
2023-02-15T00:31:49.792Z,80.10
2023-02-15T00:34:22.418Z,79.40
2023-02-15T00:36:49.905Z,79.50
2023-02-15T00:39:18.260Z,79.40
2023-02-15T00:41:46.618Z,79.30
2023-02-15T00:44:14.828Z,79.60
2023-02-15T00:46:42.016Z,79.90
2023-02-15T00:49:10.352Z,80.30
2023-02-15T00:51:38.478Z,80.30
2023-02-15T00:54:06.025Z,80.20
2023-02-15T00:56:33.104Z,80.30
2023-02-15T00:59:00.084Z,80.50
2023-02-15T01:01:27.571Z,80.50
2023-02-15T01:03:54.657Z,80.50
2023-02-15T01:06:22.107Z,80.80
2023-02-15T01:08:49.271Z,80.70
2023-02-15T01:11:25.786Z,80.70
2023-02-15T01:13:55.395Z,80.50
2023-02-15T01:16:24.000Z,80.50
2023-02-15T01:18:51.436Z,80.50
2023-02-15T01:21:21.226Z,80.60
2023-02-15T01:23:48.479Z,80.90
2023-02-15T01:26:16.563Z,81.10
2023-02-15T01:28:45.315Z,81.00
2023-02-15T01:31:15.508Z,81.50
2023-02-15T01:33:43.261Z,80.80
2023-02-15T01:36:10.988Z,80.70
2023-02-15T01:38:40.950Z,80.80
2023-02-15T01:41:27.623Z,80.70
2023-02-15T01:43:57.790Z,80.80
2023-02-15T01:46:51.767Z,81.00
2023-02-15T01:49:22.600Z,81.20
2023-02-15T01:51:53.949Z,81.40
2023-02-15T01:54:36.800Z,81.50
2023-02-15T01:57:09.975Z,81.80
2023-02-15T01:59:40.560Z,81.80
2023-02-15T02:02:10.049Z,81.60
2023-02-15T02:04:45.029Z,81.10
2023-02-15T02:07:15.548Z,81.30
2023-02-15T02:09:42.700Z,81.80
2023-02-15T02:12:10.722Z,82.00
2023-02-15T02:14:41.703Z,82.20
2023-02-15T02:17:31.804Z,82.20
2023-02-15T02:20:07.658Z,81.80
2023-02-15T02:22:43.755Z,81.00
2023-02-15T02:25:19.570Z,80.90
2023-02-15T02:27:49.688Z,80.90
2023-02-15T02:30:48.427Z,81.00
2023-02-15T02:33:36.264Z,81.30
2023-02-15T02:36:22.017Z,81.50
2023-02-15T02:39:09.082Z,81.70
2023-02-15T02:41:40.993Z,81.70
2023-02-15T02:44:29.048Z,82.00
2023-02-15T02:47:27.685Z,82.30
2023-02-15T02:50:03.781Z,82.40
2023-02-15T02:52:42.860Z,82.50
2023-02-15T02:55:21.636Z,82.50
2023-02-15T02:58:12.262Z,82.50
2023-02-15T03:00:51.854Z,82.60
2023-02-15T03:03:39.569Z,82.80
2023-02-15T03:06:20.073Z,82.90
2023-02-15T03:08:52.271Z,82.80
2023-02-15T03:11:19.507Z,82.70
2023-02-15T03:13:48.692Z,82.60
2023-02-15T03:16:28.543Z,82.40
2023-02-15T03:19:01.188Z,82.40
2023-02-15T03:21:58.952Z,82.60
2023-02-15T03:24:30.932Z,82.80
2023-02-15T03:26:59.197Z,83.00
2023-02-15T03:29:28.821Z,83.20
2023-02-15T03:32:03.286Z,83.30
2023-02-15T03:34:30.648Z,83.50
2023-02-15T03:37:08.526Z,83.60
2023-02-15T03:39:44.210Z,83.80
2023-02-15T03:42:13.323Z,83.80
2023-02-15T03:44:52.980Z,83.90
2023-02-15T03:47:25.288Z,84.10
2023-02-15T03:49:57.639Z,84.80
2023-02-15T03:52:29.075Z,84.30
2023-02-15T03:54:56.306Z,84.40
2023-02-15T03:57:47.442Z,85.10
2023-02-15T04:00:41.622Z,84.70
2023-02-15T04:03:29.821Z,84.80
2023-02-15T04:05:56.836Z,84.90
2023-02-15T04:08:43.937Z,84.70
2023-02-15T04:11:10.954Z,84.40
2023-02-15T04:13:37.845Z,84.30
2023-02-15T04:16:05.989Z,84.40
2023-02-15T04:18:58.492Z,84.50
2023-02-15T04:21:46.010Z,84.80
2023-02-15T04:24:32.513Z,85.20
2023-02-15T04:27:00.524Z,85.50
2023-02-15T04:29:28.350Z,85.80
2023-02-15T04:31:56.933Z,86.20
2023-02-15T04:34:24.015Z,86.30
2023-02-15T04:36:51.365Z,86.30
2023-02-15T04:39:19.387Z,86.50
2023-02-15T04:41:47.127Z,86.20
2023-02-15T04:44:14.126Z,85.80
2023-02-15T04:46:41.139Z,85.50
2023-02-15T04:49:09.641Z,85.30
2023-02-15T04:51:36.639Z,85.20
2023-02-15T04:54:03.570Z,85.00
2023-02-15T04:56:31.213Z,84.80
2023-02-15T04:58:58.241Z,84.90
2023-02-15T05:01:25.311Z,84.90
2023-02-15T05:03:52.319Z,85.00
2023-02-15T05:06:19.429Z,85.20
2023-02-15T05:08:46.415Z,85.30
2023-02-15T05:11:13.474Z,85.50
2023-02-15T05:13:40.372Z,85.50
2023-02-15T05:16:07.402Z,85.40
2023-02-15T05:18:34.406Z,85.40
2023-02-15T05:21:01.394Z,85.50
2023-02-15T05:23:28.355Z,85.70
2023-02-15T05:26:14.097Z,85.90
2023-02-15T05:28:41.078Z,86.20
2023-02-15T05:31:15.514Z,86.50
2023-02-15T05:33:42.614Z,86.50
2023-02-15T05:36:10.347Z,86.40
2023-02-15T05:38:40.465Z,86.30
2023-02-15T05:41:08.372Z,87.00
2023-02-15T05:43:35.651Z,86.50
2023-02-15T05:46:04.258Z,86.50
2023-02-15T05:48:32.529Z,86.50
2023-02-15T05:51:03.590Z,86.60
2023-02-15T05:53:33.107Z,86.60
2023-02-15T05:56:01.668Z,86.60
2023-02-15T05:58:34.855Z,86.60
2023-02-15T06:01:09.546Z,86.60
2023-02-15T06:03:36.738Z,86.50
2023-02-15T06:06:05.512Z,86.60
2023-02-15T06:08:33.899Z,86.70
2023-02-15T06:11:01.881Z,86.70
2023-02-15T06:13:29.292Z,86.60
2023-02-15T06:15:56.548Z,86.40
2023-02-15T06:18:24.030Z,86.40
2023-02-15T06:20:50.983Z,86.50
2023-02-15T06:23:18.165Z,86.50
2023-02-15T06:25:46.868Z,86.40
2023-02-15T06:28:14.454Z,86.50
2023-02-15T06:30:41.485Z,86.30
2023-02-15T06:33:08.624Z,86.20
2023-02-15T06:35:35.597Z,86.10
2023-02-15T06:38:02.583Z,86.20
2023-02-15T06:40:29.592Z,86.50
2023-02-15T06:42:56.627Z,86.60
2023-02-15T06:45:23.555Z,86.80
2023-02-15T06:47:50.829Z,86.90
2023-02-15T06:50:17.794Z,87.00
2023-02-15T06:52:44.765Z,87.20
2023-02-15T06:55:11.874Z,87.20
2023-02-15T06:57:38.977Z,87.20
2023-02-15T07:00:07.070Z,87.10
2023-02-15T07:02:34.341Z,86.90
2023-02-15T07:05:01.322Z,86.50
2023-02-15T07:07:28.372Z,85.70
2023-02-15T07:09:55.393Z,84.60
2023-02-15T07:12:41.004Z,84.30
2023-02-15T07:15:10.472Z,84.60
2023-02-15T07:17:38.168Z,83.50
2023-02-15T07:20:08.789Z,82.10
2023-02-15T07:22:37.354Z,80.50
2023-02-15T07:25:06.674Z,78.90
2023-02-15T07:27:33.816Z,77.40
2023-02-15T07:30:01.791Z,76.10
2023-02-15T07:32:32.984Z,74.90
2023-02-15T07:35:00.790Z,73.90
2023-02-15T07:37:28.214Z,72.90
2023-02-15T07:39:55.227Z,72.20
2023-02-15T07:42:23.087Z,71.60
2023-02-15T07:44:53.708Z,71.10
2023-02-15T07:47:20.795Z,70.50
2023-02-15T07:49:50.368Z,70.30
2023-02-15T07:52:17.442Z,70.00
2023-02-15T07:54:44.546Z,69.90
2023-02-15T07:57:11.454Z,69.80
2023-02-15T07:59:38.558Z,70.10
2023-02-15T08:02:10.762Z,70.50
2023-02-15T08:04:37.794Z,71.00
2023-02-15T08:07:05.316Z,71.60
2023-02-15T08:09:32.455Z,72.10
2023-02-15T08:11:59.387Z,72.80
2023-02-15T08:14:28.409Z,73.20
2023-02-15T08:17:00.198Z,73.60
2023-02-15T08:19:29.440Z,73.80
2023-02-15T08:22:02.356Z,73.90
2023-02-15T08:24:32.355Z,73.80
2023-02-15T08:27:00.101Z,73.70
2023-02-15T08:29:29.754Z,73.60
2023-02-15T08:32:05.591Z,73.50
2023-02-15T08:34:36.176Z,73.30
2023-02-15T08:37:03.512Z,73.20
2023-02-15T08:39:30.527Z,72.80
2023-02-15T08:41:57.592Z,72.40
2023-02-15T08:44:25.438Z,72.10
2023-02-15T08:46:52.552Z,71.70
2023-02-15T08:49:22.107Z,71.30
2023-02-15T08:51:50.550Z,70.70
2023-02-15T08:54:20.592Z,70.50
2023-02-15T08:56:48.082Z,70.20
2023-02-15T08:59:21.232Z,70.10
2023-02-15T09:01:51.022Z,69.90
2023-02-15T09:04:19.039Z,69.50
2023-02-15T09:06:48.771Z,68.90
2023-02-15T09:09:17.749Z,68.50
2023-02-15T09:11:46.933Z,68.50
2023-02-15T09:14:16.578Z,68.40
2023-02-15T09:16:47.463Z,68.40
2023-02-15T09:19:14.562Z,68.10
2023-02-15T09:21:41.724Z,67.40
2023-02-15T09:24:12.396Z,67.50
2023-02-15T09:26:42.407Z,67.30
2023-02-15T09:29:10.726Z,65.90
2023-02-15T09:31:45.468Z,66.40
2023-02-15T09:34:18.138Z,66.90
2023-02-15T09:36:46.011Z,66.90
2023-02-15T09:39:25.400Z,67.00
2023-02-15T09:42:20.071Z,66.60
2023-02-15T09:45:08.947Z,66.00
2023-02-15T09:47:47.992Z,65.80
2023-02-15T09:50:32.418Z,66.00
2023-02-15T09:53:11.409Z,65.20
2023-02-15T09:55:41.424Z,65.20
2023-02-15T09:58:35.367Z,66.00
2023-02-15T10:51:02.608Z,61.50
2023-02-15T10:53:38.642Z,60.50
2023-02-15T10:56:26.036Z,61.00
2023-02-15T10:59:04.908Z,60.40
2023-02-15T11:01:50.658Z,60.60
2023-02-15T11:04:42.538Z,60.50
2023-02-15T11:11:27.669Z,60.60
2023-02-15T11:14:00.987Z,61.10
2023-02-15T11:16:39.086Z,60.60
2023-02-15T11:19:12.531Z,60.60
2023-02-15T11:21:50.969Z,59.30
2023-02-15T11:24:21.120Z,59.50
2023-02-15T11:27:14.158Z,59.50
2023-02-15T11:29:49.191Z,58.90
2023-02-15T11:32:32.450Z,58.90
2023-02-15T11:35:21.373Z,58.40
2023-02-15T11:37:57.338Z,58.10
2023-02-15T11:40:36.166Z,57.70
2023-02-15T11:43:20.516Z,58.60
2023-02-15T11:45:47.677Z,58.50
2023-02-15T11:48:16.203Z,58.30
2023-02-15T11:50:44.564Z,57.90
2023-02-15T11:53:17.930Z,57.20
2023-02-15T11:55:47.042Z,57.40
2023-02-15T11:58:22.771Z,57.20
2023-02-15T12:00:55.964Z,56.80
2023-02-15T12:03:30.253Z,55.90
2023-02-15T12:06:02.569Z,56.00
2023-02-15T12:08:41.289Z,55.90
2023-02-15T12:11:18.630Z,55.70
2023-02-15T12:14:03.791Z,55.70
2023-02-15T12:16:40.731Z,55.00
2023-02-15T12:19:35.578Z,54.90
2023-02-15T12:22:04.768Z,54.50
2023-02-15T12:24:39.237Z,53.30
2023-02-15T12:27:16.838Z,53.40
2023-02-15T12:29:54.574Z,53.80
2023-02-15T12:32:31.143Z,53.60
2023-02-15T12:35:09.194Z,53.10
2023-02-15T12:37:36.849Z,51.50
2023-02-15T12:40:21.745Z,51.50
2023-02-15T12:42:49.520Z,52.00
2023-02-15T12:45:32.582Z,51.90
2023-02-15T12:48:19.136Z,51.90
2023-02-15T12:50:58.281Z,52.20
2023-02-15T12:53:37.274Z,50.30
2023-02-15T12:56:10.008Z,50.30
2023-02-15T12:58:42.231Z,48.70
2023-02-15T13:01:22.220Z,47.00
2023-02-15T13:04:21.064Z,47.70
2023-02-15T13:06:52.647Z,48.60
2023-02-15T13:09:25.303Z,48.90
2023-02-15T13:11:52.527Z,48.50
2023-02-15T13:14:34.754Z,48.40
2023-02-15T13:17:03.945Z,47.70
2023-02-15T13:19:40.646Z,47.40
2023-02-15T13:22:13.779Z,47.00
2023-02-15T13:24:48.361Z,47.80
2023-02-15T13:27:21.401Z,47.30
2023-02-15T13:29:53.255Z,46.80
2023-02-15T13:32:41.991Z,47.50
2023-02-15T13:35:17.444Z,48.30
2023-02-15T13:37:54.054Z,48.30
2023-02-15T13:40:33.948Z,48.50
2023-02-15T13:43:03.174Z,48.70
2023-02-15T13:59:06.930Z,47.50
2023-02-15T14:02:13.122Z,47.70
2023-02-15T14:04:54.673Z,48.10
2023-02-15T14:07:53.608Z,48.10
2023-02-15T14:10:36.561Z,48.00
2023-02-15T14:13:38.413Z,47.40
2023-02-15T14:16:36.085Z,47.20
2023-02-15T14:19:31.961Z,47.20
2023-02-15T14:22:08.974Z,47.50
2023-02-15T14:24:38.743Z,47.80
2023-02-15T14:27:31.306Z,47.50
2023-02-15T14:30:06.039Z,46.50
2023-02-15T14:33:11.949Z,46.80
2023-02-15T14:35:41.058Z,47.20
2023-02-15T14:38:10.707Z,47.40
2023-02-15T14:41:05.319Z,47.40
2023-02-15T14:43:47.464Z,47.70
2023-02-15T14:46:39.154Z,47.60
2023-02-15T14:49:12.235Z,47.70
2023-02-15T14:51:46.489Z,47.70
2023-02-15T14:54:22.409Z,47.60
2023-02-15T14:57:01.672Z,47.70
2023-02-15T14:59:58.437Z,48.00
2023-02-15T15:02:49.751Z,48.20
2023-02-15T15:05:22.692Z,47.90
2023-02-15T15:07:54.837Z,48.60
2023-02-15T15:10:21.783Z,48.60
2023-02-15T15:12:56.041Z,48.10
2023-02-15T15:15:31.805Z,48.30
2023-02-15T15:18:00.234Z,48.70
2023-02-15T15:20:27.077Z,48.90
2023-02-15T15:23:12.701Z,49.10
2023-02-15T15:25:54.921Z,49.30
2023-02-15T15:28:47.828Z,49.90
2023-02-15T15:31:24.376Z,50.30
2023-02-15T15:34:17.723Z,50.50
2023-02-15T15:37:02.588Z,50.70
2023-02-15T15:39:50.675Z,50.40
2023-02-15T15:42:32.843Z,50.30
2023-02-15T15:45:29.055Z,50.40
2023-02-15T15:48:20.203Z,50.30
2023-02-15T15:50:49.619Z,50.20
2023-02-15T15:53:26.351Z,50.10
2023-02-15T15:56:01.060Z,50.10
2023-02-15T15:58:31.506Z,50.30
2023-02-15T16:01:08.867Z,50.70
2023-02-15T16:03:35.934Z,51.50
2023-02-15T16:06:03.187Z,51.80
2023-02-15T16:08:33.718Z,52.20
2023-02-15T16:11:08.643Z,52.80
2023-02-15T16:13:35.738Z,53.00
2023-02-15T16:16:03.123Z,53.30
2023-02-15T16:18:31.027Z,53.70
2023-02-15T16:21:02.522Z,54.00
2023-02-15T16:23:34.996Z,54.20
2023-02-15T16:26:20.508Z,54.30
2023-02-15T16:28:52.645Z,54.70
2023-02-15T16:31:20.638Z,54.80
2023-02-15T16:33:48.083Z,55.60
2023-02-15T16:36:26.514Z,55.30
2023-02-15T16:38:53.539Z,55.70
2023-02-15T16:41:25.208Z,55.80
2023-02-15T16:43:55.335Z,56.00
2023-02-15T16:46:44.202Z,56.20
2023-02-15T16:49:29.507Z,56.40
2023-02-15T16:51:58.729Z,56.50
2023-02-15T16:54:26.986Z,56.60
2023-02-15T16:56:54.296Z,57.00
2023-02-15T16:59:45.662Z,57.50
2023-02-15T17:02:40.533Z,57.70
2023-02-15T17:05:12.332Z,58.00
2023-02-15T17:07:49.291Z,58.30
2023-02-15T17:10:38.047Z,58.40
2023-02-15T17:13:12.336Z,58.50
2023-02-15T17:15:42.201Z,58.50
2023-02-15T17:18:18.904Z,58.60
2023-02-15T17:20:47.073Z,58.80
2023-02-15T17:23:33.351Z,58.80
2023-02-15T17:26:11.399Z,59.20
2023-02-15T17:28:38.699Z,59.20
2023-02-15T17:31:09.343Z,59.40
2023-02-15T17:33:40.396Z,59.70
2023-02-15T17:36:14.597Z,59.90
2023-02-15T17:39:00.523Z,60.30
2023-02-15T17:41:30.727Z,60.40
2023-02-15T17:43:57.876Z,60.60
2023-02-15T17:46:26.558Z,60.90
2023-02-15T17:48:56.084Z,61.20
2023-02-15T17:51:23.966Z,61.50
2023-02-15T17:54:09.632Z,62.00
2023-02-15T17:56:38.393Z,62.10
2023-02-15T17:59:10.293Z,62.20
2023-02-15T18:02:08.639Z,62.40
2023-02-15T18:04:55.823Z,62.70
2023-02-15T18:07:41.689Z,62.90
2023-02-15T18:10:37.946Z,62.70
2023-02-15T18:13:05.026Z,63.40
2023-02-15T18:15:31.945Z,63.80
2023-02-15T18:17:59.003Z,64.20
2023-02-15T18:20:31.619Z,64.60
2023-02-15T18:22:58.763Z,65.00
2023-02-15T18:25:25.847Z,65.30
2023-02-15T18:27:55.077Z,65.60
2023-02-15T18:30:26.292Z,65.70
2023-02-15T18:32:56.721Z,65.90
2023-02-15T18:35:26.298Z,66.30
2023-02-15T18:37:54.338Z,66.40
2023-02-15T18:40:25.143Z,66.50
2023-02-15T18:42:52.240Z,66.60
2023-02-15T18:45:25.183Z,66.90
2023-02-15T18:47:52.215Z,67.40
2023-02-15T18:50:20.904Z,67.60
2023-02-15T18:52:51.561Z,68.00
2023-02-15T18:55:24.890Z,68.30
2023-02-15T18:57:53.706Z,68.40
2023-02-15T19:00:29.253Z,68.40
2023-02-15T19:02:57.148Z,68.60
2023-02-15T19:05:27.520Z,68.50
2023-02-15T19:07:55.354Z,69.20
2023-02-15T19:10:25.772Z,69.10
2023-02-15T19:12:53.958Z,69.40
2023-02-15T19:15:23.898Z,70.00
2023-02-15T19:17:52.374Z,69.80
2023-02-15T19:20:22.889Z,70.00
2023-02-15T19:22:52.370Z,70.10
2023-02-15T19:25:29.199Z,70.10
2023-02-15T19:27:56.757Z,70.10
2023-02-15T19:30:32.947Z,70.30
2023-02-15T19:33:00.544Z,70.80
2023-02-15T19:35:31.861Z,71.00
2023-02-15T19:38:03.159Z,71.20
2023-02-15T19:40:35.641Z,71.50
2023-02-15T19:43:03.599Z,71.70
2023-02-15T19:45:32.502Z,71.80
2023-02-15T19:48:01.978Z,71.80
2023-02-15T19:50:31.305Z,71.90
2023-02-15T19:52:58.485Z,71.90
2023-02-15T19:55:30.747Z,71.70
2023-02-15T19:57:59.253Z,71.70
2023-02-15T20:00:31.868Z,71.90
2023-02-15T20:02:59.627Z,71.90
2023-02-15T20:05:31.763Z,72.30
2023-02-15T20:07:58.912Z,72.40
2023-02-15T20:10:30.997Z,72.60
2023-02-15T20:12:58.795Z,72.60
2023-02-15T20:15:29.872Z,72.70
2023-02-15T20:17:58.809Z,72.60
2023-02-15T20:20:48.719Z,72.30
2023-02-15T20:23:31.794Z,72.30
2023-02-15T20:26:01.065Z,72.20
2023-02-15T20:28:31.448Z,72.50
2023-02-15T20:30:59.349Z,72.90
2023-02-15T20:33:26.578Z,73.40
2023-02-15T20:35:53.746Z,73.80
2023-02-15T20:38:29.778Z,74.10
2023-02-15T20:41:18.184Z,74.30
2023-02-15T20:43:45.218Z,74.30
2023-02-15T20:46:12.481Z,74.30
2023-02-15T20:48:39.506Z,74.50
2023-02-15T20:51:11.991Z,74.60
2023-02-15T20:53:38.976Z,74.60
2023-02-15T20:56:05.966Z,74.70
2023-02-15T20:58:33.039Z,75.40
2023-02-15T21:01:00.089Z,75.00
2023-02-15T21:03:31.086Z,75.60
2023-02-15T21:05:59.414Z,75.90
2023-02-15T21:08:26.808Z,75.60
2023-02-15T21:10:54.340Z,75.40
2023-02-15T21:13:30.507Z,75.20
2023-02-15T21:15:58.481Z,74.80
2023-02-15T21:18:33.594Z,74.50
2023-02-15T21:21:04.697Z,74.70
2023-02-15T21:23:40.378Z,75.10
2023-02-15T21:26:15.026Z,75.70
2023-02-15T21:28:42.086Z,76.20
2023-02-15T21:31:17.200Z,76.60
2023-02-15T21:33:44.847Z,76.80
2023-02-15T21:36:39.885Z,77.00
2023-02-15T21:39:07.624Z,77.80
2023-02-15T21:41:53.280Z,77.80
2023-02-15T21:44:41.273Z,77.80
2023-02-15T21:47:44.990Z,77.80
2023-02-15T21:50:40.207Z,77.90
2023-02-15T21:53:10.621Z,77.40
2023-02-15T21:55:37.839Z,77.10
2023-02-15T21:58:05.899Z,76.90
2023-02-15T22:00:33.979Z,76.90
2023-02-15T22:03:02.099Z,76.90
2023-02-15T22:05:32.248Z,76.90
2023-02-15T22:07:59.925Z,76.80
2023-02-15T22:10:32.987Z,76.90
2023-02-15T22:13:01.432Z,77.00
2023-02-15T22:15:34.661Z,77.00
2023-02-15T22:18:02.591Z,77.30
2023-02-15T22:20:29.657Z,77.60
2023-02-15T22:22:56.583Z,77.80
2023-02-15T22:25:25.762Z,77.80
2023-02-15T22:27:54.181Z,78.10
2023-02-15T22:30:27.224Z,78.40
2023-02-15T22:32:56.229Z,78.70
2023-02-15T22:35:28.957Z,78.70
2023-02-15T22:37:56.480Z,78.90
2023-02-15T22:40:33.936Z,79.10
2023-02-15T22:43:03.919Z,79.20
2023-02-15T22:45:32.506Z,79.00
2023-02-15T22:48:00.666Z,79.00
2023-02-15T22:50:32.394Z,79.30
2023-02-15T22:53:03.543Z,79.60
2023-02-15T22:55:34.037Z,79.30
2023-02-15T22:58:01.512Z,78.40
2023-02-15T23:00:31.821Z,77.90
2023-02-15T23:02:58.816Z,77.40
2023-02-15T23:05:30.553Z,77.00
2023-02-15T23:07:58.134Z,77.20
2023-02-15T23:10:26.471Z,77.30
2023-02-15T23:13:19.709Z,77.30
2023-02-15T23:15:50.931Z,76.90
2023-02-15T23:18:39.036Z,77.30
2023-02-15T23:21:20.637Z,77.90
2023-02-15T23:23:53.769Z,78.10
2023-02-15T23:26:24.046Z,78.30
2023-02-15T23:28:52.423Z,78.50
2023-02-15T23:31:19.696Z,78.70
2023-02-15T23:33:47.440Z,79.10
2023-02-15T23:36:29.787Z,79.40
2023-02-15T23:38:59.704Z,79.30
2023-02-15T23:41:30.216Z,79.20
2023-02-15T23:44:00.512Z,79.50
2023-02-15T23:46:35.221Z,79.70
2023-02-15T23:49:14.638Z,79.90
2023-02-15T23:51:44.237Z,79.10
2023-02-15T23:54:14.111Z,79.60
2023-02-15T23:56:42.377Z,79.80
2023-02-15T23:59:16.781Z,80.00
